sensor_id;sensor_type;location;lat;lon;timestamp;pressure;altitude;pressure_sealevel;temperature;humidity
58467;BME280;44255;49.244;7.726;2022-12-07T04:30:57;98429.34;;;4.43;83.90
58467;BME280;44255;49.244;7.726;2022-12-07T04:33:22;98422.31;;;4.45;83.94
58467;BME280;44255;49.244;7.726;2022-12-07T04:35:47;98423.16;;;4.48;84.18
58467;BME280;44255;49.244;7.726;2022-12-07T04:38:12;98430.28;;;4.38;84.22
58467;BME280;44255;49.244;7.726;2022-12-07T04:40:38;98424.09;;;4.43;84.36
58467;BME280;44255;49.244;7.726;2022-12-07T04:43:03;98424.09;;;4.43;83.96
58467;BME280;44255;49.244;7.726;2022-12-07T04:45:29;98422.31;;;4.45;83.96
58467;BME280;44255;49.244;7.726;2022-12-07T04:47:55;98413.50;;;4.49;83.77
58467;BME280;44255;49.244;7.726;2022-12-07T04:50:20;98423.03;;;4.59;83.65
58467;BME280;44255;49.244;7.726;2022-12-07T04:52:45;98421.28;;;4.58;83.44
58467;BME280;44255;49.244;7.726;2022-12-07T04:55:11;98420.63;;;4.37;83.76
58467;BME280;44255;49.244;7.726;2022-12-07T04:57:36;98421.50;;;4.41;83.95
58467;BME280;44255;49.244;7.726;2022-12-07T05:00:01;98413.53;;;4.46;83.22
58467;BME280;44255;49.244;7.726;2022-12-07T05:02:27;98415.19;;;4.51;82.98
58467;BME280;44255;49.244;7.726;2022-12-07T05:04:52;98410.94;;;4.41;83.18
58467;BME280;44255;49.244;7.726;2022-12-07T05:07:17;98415.41;;;4.34;83.86
58467;BME280;44255;49.244;7.726;2022-12-07T05:09:42;98410.13;;;4.33;84.13
58467;BME280;44255;49.244;7.726;2022-12-07T05:12:08;98412.72;;;4.39;83.68
58467;BME280;44255;49.244;7.726;2022-12-07T05:14:33;98411.84;;;4.38;84.11
58467;BME280;44255;49.244;7.726;2022-12-07T05:16:58;98411.81;;;4.43;83.36
58467;BME280;44255;49.244;7.726;2022-12-07T05:19:24;98410.09;;;4.37;84.32
58467;BME280;44255;49.244;7.726;2022-12-07T05:21:49;98407.47;;;4.39;84.20
58467;BME280;44255;49.244;7.726;2022-12-07T05:24:15;98408.34;;;4.36;84.02
58467;BME280;44255;49.244;7.726;2022-12-07T05:26:41;98410.03;;;4.44;83.60
58467;BME280;44255;49.244;7.726;2022-12-07T05:29:07;98404.78;;;4.40;84.12
58467;BME280;44255;49.244;7.726;2022-12-07T05:31:35;98413.69;;;4.30;84.52
58467;BME280;44255;49.244;7.726;2022-12-07T05:34:00;98402.25;;;4.33;84.18
58467;BME280;44255;49.244;7.726;2022-12-07T05:36:25;98408.44;;;4.30;84.17
58467;BME280;44255;49.244;7.726;2022-12-07T05:38:53;98408.28;;;4.44;83.81
58467;BME280;44255;49.244;7.726;2022-12-07T05:41:18;98402.19;;;4.37;83.87
58467;BME280;44255;49.244;7.726;2022-12-07T05:44:03;98409.19;;;4.40;83.81
58467;BME280;44255;49.244;7.726;2022-12-07T05:46:28;98403.91;;;4.43;83.16
58467;BME280;44255;49.244;7.726;2022-12-07T05:48:53;98410.09;;;4.37;83.66
58467;BME280;44255;49.244;7.726;2022-12-07T05:51:19;98409.25;;;4.35;83.64
58467;BME280;44255;49.244;7.726;2022-12-07T05:53:45;98397.81;;;4.36;83.48
58467;BME280;44255;49.244;7.726;2022-12-07T05:56:10;98398.66;;;4.40;83.67
58467;BME280;44255;49.244;7.726;2022-12-07T05:58:35;98405.81;;;4.29;84.20
58467;BME280;44255;49.244;7.726;2022-12-07T06:01:19;98405.72;;;4.35;84.61
58467;BME280;44255;49.244;7.726;2022-12-07T06:03:44;98411.31;;;4.05;85.39
58467;BME280;44255;49.244;7.726;2022-12-07T06:06:10;98407.50;;;4.33;84.75
58467;BME280;44255;49.244;7.726;2022-12-07T06:08:35;98413.53;;;4.46;84.09
58467;BME280;44255;49.244;7.726;2022-12-07T06:11:01;98405.69;;;4.39;84.46
58467;BME280;44255;49.244;7.726;2022-12-07T06:13:45;98405.63;;;4.46;84.11
58467;BME280;44255;49.244;7.726;2022-12-07T06:16:10;98408.28;;;4.46;83.47
58467;BME280;44255;49.244;7.726;2022-12-07T06:18:35;98404.78;;;4.40;84.03
58467;BME280;44255;49.244;7.726;2022-12-07T06:21:00;98398.66;;;4.40;83.76
58467;BME280;44255;49.244;7.726;2022-12-07T06:23:26;98396.84;;;4.47;83.62
58467;BME280;44255;49.244;7.726;2022-12-07T06:25:51;98394.22;;;4.44;83.79
58467;BME280;44255;49.244;7.726;2022-12-07T06:28:16;98409.22;;;4.38;84.94
58467;BME280;44255;49.244;7.726;2022-12-07T06:30:41;98406.78;;;4.21;85.16
58467;BME280;44255;49.244;7.726;2022-12-07T06:33:07;98402.31;;;4.25;85.42
58467;BME280;44255;49.244;7.726;2022-12-07T06:35:32;98407.59;;;4.28;85.63
58467;BME280;44255;49.244;7.726;2022-12-07T06:37:58;98411.16;;;4.22;86.48
58467;BME280;44255;49.244;7.726;2022-12-07T06:40:23;98404.94;;;4.26;85.74
58467;BME280;44255;49.244;7.726;2022-12-07T06:42:48;98415.31;;;4.42;84.91
58467;BME280;44255;49.244;7.726;2022-12-07T06:45:14;98412.66;;;4.45;84.85
58467;BME280;44255;49.244;7.726;2022-12-07T06:47:39;98413.72;;;4.29;85.13
58467;BME280;44255;49.244;7.726;2022-12-07T06:50:05;98410.00;;;4.45;84.98
58467;BME280;44255;49.244;7.726;2022-12-07T06:52:32;98409.13;;;4.45;84.85
58467;BME280;44255;49.244;7.726;2022-12-07T06:54:58;98404.69;;;4.48;84.24
58467;BME280;44255;49.244;7.726;2022-12-07T06:57:23;98411.72;;;4.51;84.58
58467;BME280;44255;49.244;7.726;2022-12-07T06:59:49;98405.69;;;4.41;84.88
58467;BME280;44255;49.244;7.726;2022-12-07T07:02:14;98412.78;;;4.34;85.27
58467;BME280;44255;49.244;7.726;2022-12-07T07:04:39;98415.25;;;4.48;84.43
58467;BME280;44255;49.244;7.726;2022-12-07T07:07:05;98411.13;;;4.24;85.51
58467;BME280;44255;49.244;7.726;2022-12-07T07:09:30;98409.41;;;4.18;86.03
58467;BME280;44255;49.244;7.726;2022-12-07T07:11:55;98411.16;;;4.19;86.24
58467;BME280;44255;49.244;7.726;2022-12-07T07:14:20;98411.16;;;4.19;85.82
58467;BME280;44255;49.244;7.726;2022-12-07T07:16:46;98408.53;;;4.19;86.34
58467;BME280;44255;49.244;7.726;2022-12-07T07:19:12;98414.34;;;4.51;85.92
58467;BME280;44255;49.244;7.726;2022-12-07T07:21:37;98421.28;;;4.60;84.94
58467;BME280;44255;49.244;7.726;2022-12-07T07:24:02;98413.28;;;4.66;83.95
58467;BME280;44255;49.244;7.726;2022-12-07T07:26:27;98416.75;;;4.69;83.90
58467;BME280;44255;49.244;7.726;2022-12-07T07:28:53;98422.03;;;4.69;84.63
58467;BME280;44255;49.244;7.726;2022-12-07T07:31:18;98421.22;;;4.63;84.15
58467;BME280;44255;49.244;7.726;2022-12-07T07:33:45;98422.03;;;4.69;84.35
58467;BME280;44255;49.244;7.726;2022-12-07T07:36:11;98419.41;;;4.69;84.56
58467;BME280;44255;49.244;7.726;2022-12-07T07:38:36;98421.06;;;4.78;84.15
58467;BME280;44255;49.244;7.726;2022-12-07T07:41:02;98421.09;;;4.75;83.98
58467;BME280;44255;49.244;7.726;2022-12-07T07:43:27;98427.31;;;4.69;84.28
58467;BME280;44255;49.244;7.726;2022-12-07T07:45:52;98421.31;;;4.57;84.29
58467;BME280;44255;49.244;7.726;2022-12-07T07:48:18;98424.66;;;4.71;84.00
58467;BME280;44255;49.244;7.726;2022-12-07T07:50:43;98430.88;;;4.65;83.84
58467;BME280;44255;49.244;7.726;2022-12-07T07:53:08;98426.50;;;4.63;84.84
58467;BME280;44255;49.244;7.726;2022-12-07T07:55:33;98430.75;;;4.75;84.50
58467;BME280;44255;49.244;7.726;2022-12-07T07:57:59;98427.25;;;4.74;84.34
58467;BME280;44255;49.244;7.726;2022-12-07T08:00:24;98429.94;;;4.71;84.53
58467;BME280;44255;49.244;7.726;2022-12-07T08:02:49;98434.31;;;4.72;85.18
58467;BME280;44255;49.244;7.726;2022-12-07T08:05:15;98444.53;;;4.95;84.14
58467;BME280;44255;49.244;7.726;2022-12-07T08:07:41;98446.75;;;4.59;84.82
58467;BME280;44255;49.244;7.726;2022-12-07T08:10:08;98438.75;;;4.67;85.29
58467;BME280;44255;49.244;7.726;2022-12-07T08:12:39;98444.91;;;4.67;85.38
58467;BME280;44255;49.244;7.726;2022-12-07T08:15:25;98445.84;;;4.60;85.74
58467;BME280;44255;49.244;7.726;2022-12-07T08:17:51;98441.53;;;4.53;86.09
58467;BME280;44255;49.244;7.726;2022-12-07T08:20:16;98438.66;;;4.76;85.71
58467;BME280;44255;49.244;7.726;2022-12-07T08:22:41;98446.69;;;4.65;86.19
58467;BME280;44255;49.244;7.726;2022-12-07T08:25:07;98445.63;;;4.79;84.76
58467;BME280;44255;49.244;7.726;2022-12-07T08:27:32;98437.81;;;4.74;85.13
58467;BME280;44255;49.244;7.726;2022-12-07T08:29:57;98445.44;;;4.97;84.32
58467;BME280;44255;49.244;7.726;2022-12-07T08:32:23;98445.53;;;4.87;84.73
58467;BME280;44255;49.244;7.726;2022-12-07T08:34:48;98448.22;;;4.85;84.50
58467;BME280;44255;49.244;7.726;2022-12-07T08:37:14;98450.09;;;4.75;85.14
58467;BME280;44255;49.244;7.726;2022-12-07T08:39:39;98449.09;;;4.84;84.59
58467;BME280;44255;49.244;7.726;2022-12-07T08:42:04;98451.22;;;5.24;81.67
58467;BME280;44255;49.244;7.726;2022-12-07T08:44:29;98454.84;;;5.17;81.73
58467;BME280;44255;49.244;7.726;2022-12-07T08:47:01;98450.72;;;5.59;80.84
58467;BME280;44255;49.244;7.726;2022-12-07T08:49:39;98454.47;;;5.42;81.04
58467;BME280;44255;49.244;7.726;2022-12-07T08:52:06;98442.97;;;5.49;81.65
58467;BME280;44255;49.244;7.726;2022-12-07T08:54:33;98452.91;;;5.29;81.67
58467;BME280;44255;49.244;7.726;2022-12-07T08:57:01;98446.03;;;5.18;82.57
58467;BME280;44255;49.244;7.726;2022-12-07T08:59:28;98461.16;;;5.02;83.43
58467;BME280;44255;49.244;7.726;2022-12-07T09:01:53;98446.97;;;5.12;83.17
58467;BME280;44255;49.244;7.726;2022-12-07T09:04:19;98455.63;;;5.24;82.91
58467;BME280;44255;49.244;7.726;2022-12-07T09:06:45;98452.09;;;5.23;81.67
58467;BME280;44255;49.244;7.726;2022-12-07T09:09:11;98444.94;;;5.33;81.98
58467;BME280;44255;49.244;7.726;2022-12-07T09:11:37;98444.34;;;5.11;82.64
58467;BME280;44255;49.244;7.726;2022-12-07T09:14:02;98449.19;;;5.44;81.74
58467;BME280;44255;49.244;7.726;2022-12-07T09:16:27;98445.03;;;5.25;83.03
58467;BME280;44255;49.244;7.726;2022-12-07T09:18:53;98453.16;;;5.10;83.93
58467;BME280;44255;49.244;7.726;2022-12-07T09:21:18;98455.59;;;5.25;82.82
58467;BME280;44255;49.244;7.726;2022-12-07T09:23:44;98446.72;;;5.31;81.98
58467;BME280;44255;49.244;7.726;2022-12-07T09:26:09;98455.44;;;5.36;81.43
58467;BME280;44255;49.244;7.726;2022-12-07T09:28:35;98453.06;;;5.19;82.87
58467;BME280;44255;49.244;7.726;2022-12-07T09:31:02;98451.38;;;5.13;82.73
58467;BME280;44255;49.244;7.726;2022-12-07T09:33:28;98440.81;;;5.12;82.44
58467;BME280;44255;49.244;7.726;2022-12-07T09:35:53;98437.16;;;5.24;82.87
58467;BME280;44255;49.244;7.726;2022-12-07T09:38:19;98435.44;;;5.23;82.44
58467;BME280;44255;49.244;7.726;2022-12-07T09:40:45;98445.88;;;5.27;82.38
58467;BME280;44255;49.244;7.726;2022-12-07T09:43:13;98441.53;;;5.25;83.42
58467;BME280;44255;49.244;7.726;2022-12-07T09:45:39;98433.16;;;4.93;83.27
58467;BME280;44255;49.244;7.726;2022-12-07T09:48:08;98437.47;;;5.01;83.93
58467;BME280;44255;49.244;7.726;2022-12-07T09:50:39;98431.25;;;5.03;83.99
58467;BME280;44255;49.244;7.726;2022-12-07T09:53:13;98426.25;;;5.47;81.64
58467;BME280;44255;49.244;7.726;2022-12-07T09:55:40;98420.22;;;5.40;81.87
58467;BME280;44255;49.244;7.726;2022-12-07T09:58:12;98428.09;;;5.42;82.56
58467;BME280;44255;49.244;7.726;2022-12-07T10:00:40;98432.06;;;5.11;83.13
58467;BME280;44255;49.244;7.726;2022-12-07T10:03:08;98426.50;;;5.32;83.59
58467;BME280;44255;49.244;7.726;2022-12-07T10:05:38;98421.81;;;5.51;82.00
58467;BME280;44255;49.244;7.726;2022-12-07T10:08:11;98425.63;;;5.30;83.00
58467;BME280;44255;49.244;7.726;2022-12-07T10:10:37;98431.78;;;5.32;82.82
58467;BME280;44255;49.244;7.726;2022-12-07T10:13:19;98424.41;;;5.54;82.09
58467;BME280;44255;49.244;7.726;2022-12-07T10:20:46;98414.22;;;5.31;82.93
58467;BME280;44255;49.244;7.726;2022-12-07T10:23:17;98419.56;;;5.24;83.24
58467;BME280;44255;49.244;7.726;2022-12-07T10:25:43;98409.56;;;5.48;82.40
58467;BME280;44255;49.244;7.726;2022-12-07T10:30:55;98412.94;;;5.57;82.53
58467;BME280;44255;49.244;7.726;2022-12-07T10:33:36;98401.13;;;5.79;80.77
58467;BME280;44255;49.244;7.726;2022-12-07T10:36:19;98399.19;;;5.89;80.71
58467;BME280;44255;49.244;7.726;2022-12-07T10:39:31;98399.56;;;6.19;79.67
58467;BME280;44255;49.244;7.726;2022-12-07T10:41:31;98396.88;;;6.22;79.14
58467;BME280;44255;49.244;7.726;2022-12-07T10:43:57;98396.66;;;6.33;78.34
58467;BME280;44255;49.244;7.726;2022-12-07T10:46:37;98390.16;;;6.04;79.45
58467;BME280;44255;49.244;7.726;2022-12-07T10:52:18;98385.13;;;5.89;79.49
58467;BME280;44255;49.244;7.726;2022-12-07T11:00:08;98378.41;;;5.69;80.79
58467;BME280;44255;49.244;7.726;2022-12-07T11:03:06;98385.81;;;5.45;81.85
58467;BME280;44255;49.244;7.726;2022-12-07T11:05:59;98382.88;;;5.65;81.15
58467;BME280;44255;49.244;7.726;2022-12-07T11:11:38;98366.00;;;5.74;80.50
58467;BME280;44255;49.244;7.726;2022-12-07T11:16:53;98363.81;;;6.00;79.63
58467;BME280;44255;49.244;7.726;2022-12-07T11:19:44;98359.31;;;6.05;78.94
58467;BME280;44255;49.244;7.726;2022-12-07T11:22:51;98359.31;;;6.06;78.53
58467;BME280;44255;49.244;7.726;2022-12-07T11:25:31;98358.66;;;5.90;79.21
58467;BME280;44255;49.244;7.726;2022-12-07T11:33:45;98354.28;;;5.37;80.59
58467;BME280;44255;49.244;7.726;2022-12-07T11:36:23;98351.81;;;5.28;80.62
58467;BME280;44255;49.244;7.726;2022-12-07T11:39:08;98349.94;;;5.87;79.53
58467;BME280;44255;49.244;7.726;2022-12-07T11:41:39;98347.78;;;5.59;79.45
58467;BME280;44255;49.244;7.726;2022-12-07T11:44:27;98350.72;;;5.93;78.02
58467;BME280;44255;49.244;7.726;2022-12-07T11:50:05;98344.63;;;5.90;77.76
58467;BME280;44255;49.244;7.726;2022-12-07T11:52:49;98336.19;;;5.67;78.74
58467;BME280;44255;49.244;7.726;2022-12-07T11:58:08;98341.91;;;5.94;77.16
58467;BME280;44255;49.244;7.726;2022-12-07T12:00:37;98330.84;;;5.72;76.51
58467;BME280;44255;49.244;7.726;2022-12-07T12:03:12;98330.03;;;5.68;76.25
58467;BME280;44255;49.244;7.726;2022-12-07T12:05:40;98330.34;;;5.50;76.93
58467;BME280;44255;49.244;7.726;2022-12-07T12:13:52;98323.03;;;5.66;76.68
58467;BME280;44255;49.244;7.726;2022-12-07T12:16:48;98324.78;;;5.65;75.72
58467;BME280;44255;49.244;7.726;2022-12-07T12:19:28;98316.81;;;5.68;75.33
58467;BME280;44255;49.244;7.726;2022-12-07T12:22:21;98315.00;;;5.72;75.14
58467;BME280;44255;49.244;7.726;2022-12-07T12:24:51;98316.41;;;5.92;75.31
58467;BME280;44255;49.244;7.726;2022-12-07T12:27:25;98311.41;;;5.76;76.19
58467;BME280;44255;49.244;7.726;2022-12-07T12:29:58;98304.31;;;5.78;77.23
58467;BME280;44255;49.244;7.726;2022-12-07T12:32:39;98310.13;;;5.97;75.95
58467;BME280;44255;49.244;7.726;2022-12-07T12:35:34;98307.91;;;5.74;76.60
58467;BME280;44255;49.244;7.726;2022-12-07T12:40:59;98306.25;;;5.68;76.71
58467;BME280;44255;49.244;7.726;2022-12-07T12:43:50;98302.66;;;5.74;77.12
58467;BME280;44255;49.244;7.726;2022-12-07T12:49:38;98301.88;;;5.67;76.83
58467;BME280;44255;49.244;7.726;2022-12-07T12:54:38;98291.22;;;5.74;76.63
58467;BME280;44255;49.244;7.726;2022-12-07T12:57:26;98294.59;;;5.82;76.88
58467;BME280;44255;49.244;7.726;2022-12-07T13:02:28;98291.41;;;5.63;76.01
58467;BME280;44255;49.244;7.726;2022-12-07T13:18:22;98274.28;;;5.86;76.60
58467;BME280;44255;49.244;7.726;2022-12-07T13:28:47;98273.16;;;5.97;76.86
58467;BME280;44255;49.244;7.726;2022-12-07T13:33:46;98270.34;;;6.08;76.74
58467;BME280;44255;49.244;7.726;2022-12-07T13:36:26;98264.91;;;6.15;76.47
58467;BME280;44255;49.244;7.726;2022-12-07T13:38:57;98270.09;;;6.21;75.86
58467;BME280;44255;49.244;7.726;2022-12-07T13:41:28;98272.22;;;6.02;76.59
58467;BME280;44255;49.244;7.726;2022-12-07T13:46:40;98274.63;;;6.14;76.55
58467;BME280;44255;49.244;7.726;2022-12-07T13:49:24;98263.44;;;6.00;76.80
58467;BME280;44255;49.244;7.726;2022-12-07T13:51:50;98267.75;;;6.05;76.92
58467;BME280;44255;49.244;7.726;2022-12-07T13:54:16;98263.25;;;6.10;77.21
58467;BME280;44255;49.244;7.726;2022-12-07T13:56:42;98262.31;;;6.13;76.71
58467;BME280;44255;49.244;7.726;2022-12-07T13:59:18;98258.88;;;6.09;76.74
58467;BME280;44255;49.244;7.726;2022-12-07T14:01:46;98266.16;;;5.96;76.84
58467;BME280;44255;49.244;7.726;2022-12-07T14:04:30;98260.59;;;6.10;77.06
58467;BME280;44255;49.244;7.726;2022-12-07T14:06:56;98268.31;;;6.21;76.70
58467;BME280;44255;49.244;7.726;2022-12-07T14:09:26;98263.06;;;6.20;76.01
58467;BME280;44255;49.244;7.726;2022-12-07T14:11:54;98266.03;;;6.04;76.92
58467;BME280;44255;49.244;7.726;2022-12-07T14:14:22;98265.31;;;5.93;76.89
58467;BME280;44255;49.244;7.726;2022-12-07T14:17:17;98260.69;;;6.07;77.02
58467;BME280;44255;49.244;7.726;2022-12-07T14:22:21;98257.13;;;6.08;77.23
58467;BME280;44255;49.244;7.726;2022-12-07T14:24:47;98254.81;;;5.90;77.08
58467;BME280;44255;49.244;7.726;2022-12-07T14:27:20;98260.81;;;6.01;77.11
58467;BME280;44255;49.244;7.726;2022-12-07T14:29:46;98254.59;;;6.01;77.51
58467;BME280;44255;49.244;7.726;2022-12-07T14:32:21;98263.44;;;6.00;77.33
58467;BME280;44255;49.244;7.726;2022-12-07T14:37:24;98252.41;;;5.79;77.28
58467;BME280;44255;49.244;7.726;2022-12-07T14:39:50;98256.59;;;5.89;77.20
58467;BME280;44255;49.244;7.726;2022-12-07T14:42:15;98257.44;;;5.91;77.02
58467;BME280;44255;49.244;7.726;2022-12-07T14:44:41;98244.25;;;5.90;76.53
58467;BME280;44255;49.244;7.726;2022-12-07T14:47:09;98250.28;;;5.96;76.72
58467;BME280;44255;49.244;7.726;2022-12-07T14:49:35;98242.31;;;6.01;76.25
58467;BME280;44255;49.244;7.726;2022-12-07T14:52:00;98246.81;;;5.94;76.67
58467;BME280;44255;49.244;7.726;2022-12-07T14:54:27;98246.16;;;5.83;75.99
58467;BME280;44255;49.244;7.726;2022-12-07T14:56:55;98250.75;;;5.72;76.18
58467;BME280;44255;49.244;7.726;2022-12-07T14:59:20;98250.34;;;5.46;76.83
58467;BME280;44255;49.244;7.726;2022-12-07T15:01:46;98249.81;;;5.76;75.87
58467;BME280;44255;49.244;7.726;2022-12-07T15:04:11;98246.09;;;5.86;75.59
58467;BME280;44255;49.244;7.726;2022-12-07T15:06:36;98247.69;;;5.95;75.94
58467;BME280;44255;49.244;7.726;2022-12-07T15:09:02;98250.09;;;6.09;75.91
58467;BME280;44255;49.244;7.726;2022-12-07T15:11:28;98245.66;;;6.11;75.77
58467;BME280;44255;49.244;7.726;2022-12-07T15:13:53;98249.13;;;6.11;75.63
58467;BME280;44255;49.244;7.726;2022-12-07T15:16:34;98256.22;;;6.09;76.04
58467;BME280;44255;49.244;7.726;2022-12-07T15:19:00;98247.34;;;6.14;76.41
58467;BME280;44255;49.244;7.726;2022-12-07T15:21:25;98249.13;;;6.11;76.36
58467;BME280;44255;49.244;7.726;2022-12-07T15:23:50;98248.16;;;6.17;75.43
58467;BME280;44255;49.244;7.726;2022-12-07T15:26:17;98242.03;;;6.14;76.74
58467;BME280;44255;49.244;7.726;2022-12-07T15:28:42;98235.81;;;6.18;76.95
58467;BME280;44255;49.244;7.726;2022-12-07T15:31:15;98244.75;;;6.12;77.45
58467;BME280;44255;49.244;7.726;2022-12-07T15:33:41;98242.19;;;6.07;77.21
58467;BME280;44255;49.244;7.726;2022-12-07T15:36:07;98243.84;;;6.13;76.83
58467;BME280;44255;49.244;7.726;2022-12-07T15:38:32;98245.78;;;6.03;76.50
58467;BME280;44255;49.244;7.726;2022-12-07T15:40:57;98241.41;;;6.02;77.36
58467;BME280;44255;49.244;7.726;2022-12-07T15:43:23;98243.94;;;6.07;77.07
58467;BME280;44255;49.244;7.726;2022-12-07T15:46:07;98239.53;;;6.07;76.18
58467;BME280;44255;49.244;7.726;2022-12-07T15:48:32;98249.94;;;6.17;76.05
58467;BME280;44255;49.244;7.726;2022-12-07T15:51:06;98242.19;;;6.07;76.77
58467;BME280;44255;49.244;7.726;2022-12-07T15:53:31;98238.72;;;6.05;76.13
58467;BME280;44255;49.244;7.726;2022-12-07T15:55:57;98236.91;;;6.07;75.73
58467;BME280;44255;49.244;7.726;2022-12-07T15:58:22;98227.75;;;6.24;75.52
58467;BME280;44255;49.244;7.726;2022-12-07T16:00:47;98231.69;;;6.04;76.37
58467;BME280;44255;49.244;7.726;2022-12-07T16:03:13;98218.16;;;6.20;75.80
58467;BME280;44255;49.244;7.726;2022-12-07T16:05:38;98215.44;;;6.23;75.73
58467;BME280;44255;49.244;7.726;2022-12-07T16:08:04;98216.59;;;6.09;76.71
58467;BME280;44255;49.244;7.726;2022-12-07T16:10:30;98209.44;;;6.15;76.12
58467;BME280;44255;49.244;7.726;2022-12-07T16:12:55;98211.50;;;5.98;76.49
58467;BME280;44255;49.244;7.726;2022-12-07T16:15:20;98193.88;;;5.99;76.12
58467;BME280;44255;49.244;7.726;2022-12-07T16:17:45;98207.16;;;5.96;77.41
58467;BME280;44255;49.244;7.726;2022-12-07T16:20:11;98202.78;;;5.95;77.83
58467;BME280;44255;49.244;7.726;2022-12-07T16:22:36;98203.75;;;5.91;77.48
58467;BME280;44255;49.244;7.726;2022-12-07T16:25:02;98205.50;;;5.90;78.45
58467;BME280;44255;49.244;7.726;2022-12-07T16:27:28;98208.16;;;5.90;77.95
58467;BME280;44255;49.244;7.726;2022-12-07T16:29:53;98209.31;;;5.77;77.82
58467;BME280;44255;49.244;7.726;2022-12-07T16:32:18;98206.84;;;5.67;78.29
58467;BME280;44255;49.244;7.726;2022-12-07T16:34:43;98210.38;;;5.68;77.86
58467;BME280;44255;49.244;7.726;2022-12-07T16:37:09;98207.03;;;5.58;78.25
58467;BME280;44255;49.244;7.726;2022-12-07T16:39:34;98206.97;;;5.61;78.24
58467;BME280;44255;49.244;7.726;2022-12-07T16:42:00;98207.81;;;5.63;78.63
58467;BME280;44255;49.244;7.726;2022-12-07T16:44:25;98203.44;;;5.61;78.48
58467;BME280;44255;49.244;7.726;2022-12-07T16:46:50;98201.22;;;5.39;79.65
58467;BME280;44255;49.244;7.726;2022-12-07T16:49:16;98201.09;;;5.45;79.35
58467;BME280;44255;49.244;7.726;2022-12-07T16:51:41;98190.75;;;5.36;79.04
58467;BME280;44255;49.244;7.726;2022-12-07T16:54:09;98202.91;;;5.43;79.35
58467;BME280;44255;49.244;7.726;2022-12-07T16:56:34;98197.88;;;5.29;79.40
58467;BME280;44255;49.244;7.726;2022-12-07T16:58:59;98196.94;;;5.33;79.03
58467;BME280;44255;49.244;7.726;2022-12-07T17:01:25;98200.66;;;5.23;79.79
58467;BME280;44255;49.244;7.726;2022-12-07T17:03:53;98201.06;;;4.98;80.09
58467;BME280;44255;49.244;7.726;2022-12-07T17:06:21;98193.84;;;5.08;79.72
58467;BME280;44255;49.244;7.726;2022-12-07T17:08:47;98193.06;;;5.03;79.63
58467;BME280;44255;49.244;7.726;2022-12-07T17:11:18;98194.63;;;5.13;79.39
58467;BME280;44255;49.244;7.726;2022-12-07T17:13:44;98195.78;;;5.00;79.42
58467;BME280;44255;49.244;7.726;2022-12-07T17:16:28;98188.56;;;5.09;78.52
58467;BME280;44255;49.244;7.726;2022-12-07T17:18:54;98187.03;;;4.94;78.76
58467;BME280;44255;49.244;7.726;2022-12-07T17:21:20;98198.47;;;4.96;79.17
58467;BME280;44255;49.244;7.726;2022-12-07T17:23:45;98192.41;;;4.90;78.41
58467;BME280;44255;49.244;7.726;2022-12-07T17:26:14;98197.81;;;4.80;78.15
58467;BME280;44255;49.244;7.726;2022-12-07T17:28:40;98193.44;;;4.81;78.61
58467;BME280;44255;49.244;7.726;2022-12-07T17:31:11;98191.78;;;4.75;78.47
58467;BME280;44255;49.244;7.726;2022-12-07T17:33:37;98195.31;;;4.73;78.09
58467;BME280;44255;49.244;7.726;2022-12-07T17:36:13;98188.41;;;4.65;78.11
58467;BME280;44255;49.244;7.726;2022-12-07T17:38:39;98183.19;;;4.62;77.78
58467;BME280;44255;49.244;7.726;2022-12-07T17:41:09;98183.09;;;4.68;77.26
58467;BME280;44255;49.244;7.726;2022-12-07T17:43:35;98184.16;;;4.57;77.76
58467;BME280;44255;49.244;7.726;2022-12-07T17:46:06;98171.94;;;4.49;78.40
58467;BME280;44255;49.244;7.726;2022-12-07T17:48:31;98172.88;;;4.47;78.48
58467;BME280;44255;49.244;7.726;2022-12-07T17:50:59;98176.31;;;4.52;78.50
58467;BME280;44255;49.244;7.726;2022-12-07T17:53:43;98169.41;;;4.43;78.21
58467;BME280;44255;49.244;7.726;2022-12-07T17:56:08;98172.16;;;4.35;78.68
58467;BME280;44255;49.244;7.726;2022-12-07T17:58:33;98173.97;;;4.32;78.45
58467;BME280;44255;49.244;7.726;2022-12-07T18:01:00;98167.91;;;4.28;78.19
58467;BME280;44255;49.244;7.726;2022-12-07T18:03:25;98168.13;;;4.12;78.74
58467;BME280;44255;49.244;7.726;2022-12-07T18:05:50;98170.72;;;4.14;79.01
58467;BME280;44255;49.244;7.726;2022-12-07T18:08:15;98176.75;;;4.21;78.18
58467;BME280;44255;49.244;7.726;2022-12-07T18:10:41;98175.03;;;4.18;78.47
58467;BME280;44255;49.244;7.726;2022-12-07T18:13:06;98170.84;;;4.05;78.61
58467;BME280;44255;49.244;7.726;2022-12-07T18:15:56;98182.66;;;3.73;79.69
58467;BME280;44255;49.244;7.726;2022-12-07T18:18:21;98177.31;;;3.80;78.69
58467;BME280;44255;49.244;7.726;2022-12-07T18:20:47;98178.91;;;3.91;78.54
58467;BME280;44255;49.244;7.726;2022-12-07T18:23:12;98172.66;;;3.99;78.01
58467;BME280;44255;49.244;7.726;2022-12-07T18:25:38;98169.13;;;4.01;78.04
58467;BME280;44255;49.244;7.726;2022-12-07T18:28:03;98177.00;;;4.04;77.88
58467;BME280;44255;49.244;7.726;2022-12-07T18:30:28;98181.41;;;4.02;77.80
58467;BME280;44255;49.244;7.726;2022-12-07T18:32:54;98175.31;;;3.98;78.12
58467;BME280;44255;49.244;7.726;2022-12-07T18:35:19;98173.59;;;3.97;78.35
58467;BME280;44255;49.244;7.726;2022-12-07T18:37:44;98166.47;;;4.02;77.74
58467;BME280;44255;49.244;7.726;2022-12-07T18:40:10;98164.69;;;4.04;77.67
58467;BME280;44255;49.244;7.726;2022-12-07T18:42:35;98155.19;;;3.94;76.86
58467;BME280;44255;49.244;7.726;2022-12-07T18:45:01;98157.94;;;3.84;76.91
58467;BME280;44255;49.244;7.726;2022-12-07T18:47:26;98156.19;;;3.83;76.99
58467;BME280;44255;49.244;7.726;2022-12-07T18:49:51;98165.00;;;3.81;76.59
58467;BME280;44255;49.244;7.726;2022-12-07T18:52:16;98167.84;;;3.64;77.49
58467;BME280;44255;49.244;7.726;2022-12-07T18:54:42;98159.41;;;3.34;79.07
58467;BME280;44255;49.244;7.726;2022-12-07T18:57:07;98167.97;;;3.53;78.86
58467;BME280;44255;49.244;7.726;2022-12-07T18:59:32;98157.28;;;3.68;78.01
58467;BME280;44255;49.244;7.726;2022-12-07T19:02:14;98153.47;;;3.90;76.91
58467;BME280;44255;49.244;7.726;2022-12-07T19:04:40;98148.28;;;3.85;77.28
58467;BME280;44255;49.244;7.726;2022-12-07T19:07:06;98156.16;;;3.87;76.56
58467;BME280;44255;49.244;7.726;2022-12-07T19:09:31;98147.50;;;3.77;77.31